Time;durP1;ratioP1;P1;durP2;ratioP2;P2;SDS_P1;SDS_P2;PMS_P1;PMS_P2;Temp;Humidity;BMP_temperature;BMP_pressure;BME280_temperature;BME280_humidity;BME280_pressure;Samples;Min_cycle;Max_cycle;Signal;HPM_P1;HPM_P2
2023/08/23 00:00:24;;;;;;;3.27;2.97;;;15.50;99.90;;;;;;5049781;28;20482;-51
2023/08/23 00:02:50;;;;;;;7.90;3.73;;;15.40;99.90;;;;;;5050957;28;20493;-54
2023/08/23 00:05:16;;;;;;;5.83;3.70;;;15.40;99.90;;;;;;5048171;28;20496;-53
2023/08/23 00:07:43;;;;;;;5.77;3.70;;;15.30;99.90;;;;;;5046644;28;20905;-53
2023/08/23 00:10:10;;;;;;;7.53;3.40;;;15.30;99.90;;;;;;5049430;28;20211;-51
2023/08/23 00:12:36;;;;;;;3.83;3.13;;;15.30;99.90;;;;;;5049071;28;20458;-52
2023/08/23 00:15:05;;;;;;;4.90;3.53;;;15.30;99.90;;;;;;5049018;28;20505;-52
2023/08/23 00:17:32;;;;;;;5.47;3.40;;;15.30;99.90;;;;;;5051104;28;20509;-51
2023/08/23 00:19:58;;;;;;;7.33;2.77;;;15.40;99.90;;;;;;5050894;28;20505;-51
2023/08/23 00:22:25;;;;;;;3.57;3.37;;;15.40;99.90;;;;;;5048041;28;20493;-51
2023/08/23 00:24:52;;;;;;;7.33;3.23;;;15.40;99.90;;;;;;5044174;28;20469;-52
2023/08/23 00:27:19;;;;;;;6.07;3.23;;;15.40;99.90;;;;;;5050976;28;20513;-53
2023/08/23 00:29:45;;;;;;;3.57;3.17;;;15.40;99.90;;;;;;5051641;28;20435;-52
2023/08/23 00:32:13;;;;;;;6.00;3.63;;;15.30;99.90;;;;;;5049718;28;20501;-52
2023/08/23 00:34:40;;;;;;;7.23;3.43;;;15.30;99.90;;;;;;5051210;28;20445;-52
2023/08/23 00:37:06;;;;;;;5.40;3.50;;;15.20;99.90;;;;;;5051397;28;20494;-52
2023/08/23 00:39:33;;;;;;;6.57;3.40;;;15.20;99.90;;;;;;5051509;28;20522;-53
2023/08/23 00:41:59;;;;;;;5.37;3.13;;;15.20;99.90;;;;;;5048778;28;21011;-51
2023/08/23 00:44:26;;;;;;;3.93;3.30;;;15.20;99.90;;;;;;5050601;28;20472;-51
2023/08/23 00:46:52;;;;;;;8.47;3.63;;;15.20;99.90;;;;;;5051554;28;20498;-51
2023/08/23 00:49:21;;;;;;;7.10;3.43;;;15.20;99.90;;;;;;5050452;28;20520;-52
2023/08/23 00:51:49;;;;;;;4.03;3.47;;;15.20;99.90;;;;;;5051066;28;20494;-53
2023/08/23 00:54:16;;;;;;;8.30;4.40;;;15.10;99.90;;;;;;5050074;28;20477;-51
2023/08/23 00:56:43;;;;;;;6.70;3.50;;;15.20;99.90;;;;;;5050694;28;20528;-51
2023/08/23 00:59:10;;;;;;;5.90;3.47;;;15.10;99.90;;;;;;5049314;28;20512;-51
2023/08/23 01:01:36;;;;;;;4.83;4.33;;;15.20;99.90;;;;;;5046716;28;20482;-50
2023/08/23 01:04:03;;;;;;;3.83;3.43;;;15.10;99.90;;;;;;5049415;28;20492;-53
2023/08/23 01:06:42;;;;;;;7.10;4.10;;;15.10;99.90;;;;;;5051411;28;20489;-51
2023/08/23 01:09:19;;;;;;;6.07;3.90;;;15.00;99.90;;;;;;5048184;28;20491;-52
2023/08/23 01:11:51;;;;;;;4.80;4.10;;;15.10;99.90;;;;;;5044866;28;20511;-53
2023/08/23 01:14:25;;;;;;;4.60;4.20;;;15.00;99.90;;;;;;5045303;28;20544;-52
2023/08/23 01:16:53;;;;;;;4.20;3.37;;;15.00;99.90;;;;;;5046667;28;20528;-51
2023/08/23 01:19:40;;;;;;;13.53;4.10;;;15.00;99.90;;;;;;5054753;28;20481;-52
2023/08/23 01:22:10;;;;;;;5.13;3.40;;;15.00;99.90;;;;;;5053754;28;20496;-51
2023/08/23 01:24:38;;;;;;;4.10;3.40;;;15.00;99.90;;;;;;5049848;28;20482;-51
2023/08/23 01:27:05;;;;;;;4.83;3.53;;;15.00;99.90;;;;;;5052745;28;20515;-51
2023/08/23 01:29:32;;;;;;;6.03;3.63;;;15.00;99.90;;;;;;5050038;28;21019;-51
2023/08/23 01:32:05;;;;;;;9.23;3.90;;;15.00;99.90;;;;;;5052567;28;20493;-51
2023/08/23 01:34:37;;;;;;;7.33;3.50;;;15.00;99.90;;;;;;5054176;28;20484;-51
2023/08/23 01:37:06;;;;;;;7.87;3.83;;;14.90;99.90;;;;;;5054693;28;20516;-51
2023/08/23 01:39:34;;;;;;;3.60;3.30;;;15.00;99.90;;;;;;5052306;28;20512;-52
2023/08/23 01:42:02;;;;;;;4.20;3.80;;;14.90;99.90;;;;;;5052704;28;20995;-52
2023/08/23 01:44:29;;;;;;;5.20;3.80;;;14.90;99.90;;;;;;5044802;28;20477;-53
2023/08/23 01:46:55;;;;;;;6.80;3.40;;;14.90;99.90;;;;;;5053196;28;20531;-52
2023/08/23 01:49:22;;;;;;;8.40;3.40;;;15.00;99.90;;;;;;5054307;28;20481;-51
2023/08/23 01:51:48;;;;;;;5.53;3.80;;;14.90;99.90;;;;;;5054023;28;20493;-52
2023/08/23 01:54:15;;;;;;;6.27;3.93;;;14.90;99.90;;;;;;5053000;28;20508;-52
2023/08/23 01:56:41;;;;;;;6.73;4.47;;;14.90;99.90;;;;;;5054563;28;20458;-51
2023/08/23 01:59:09;;;;;;;6.93;3.80;;;14.80;99.90;;;;;;5052479;28;20488;-53
2023/08/23 02:01:36;;;;;;;3.97;3.57;;;14.80;99.90;;;;;;5052892;28;20520;-51
2023/08/23 02:04:03;;;;;;;3.77;3.43;;;14.70;99.90;;;;;;5043281;28;20553;-51
2023/08/23 02:06:29;;;;;;;7.20;4.10;;;14.70;99.90;;;;;;5053575;28;20490;-50
2023/08/23 02:08:56;;;;;;;7.80;3.80;;;14.80;99.90;;;;;;5051836;28;20508;-52
2023/08/23 02:11:22;;;;;;;8.60;3.70;;;14.70;99.90;;;;;;5053257;28;20466;-52
2023/08/23 02:13:49;;;;;;;7.60;3.23;;;14.70;99.90;;;;;;5053418;28;20492;-52
2023/08/23 02:16:16;;;;;;;8.00;3.70;;;14.70;99.90;;;;;;5054302;28;20484;-52
2023/08/23 02:18:43;;;;;;;5.27;4.00;;;14.70;99.90;;;;;;5043680;28;20489;-52
2023/08/23 02:21:09;;;;;;;8.80;3.83;;;14.70;99.90;;;;;;5053244;28;21062;-52
2023/08/23 02:23:36;;;;;;;5.33;3.60;;;14.70;99.90;;;;;;5033362;28;20957;-52
2023/08/23 02:26:02;;;;;;;4.50;3.40;;;14.80;99.90;;;;;;5052379;28;20493;-52
2023/08/23 02:28:29;;;;;;;7.43;4.10;;;14.80;99.90;;;;;;5052158;28;20505;-52
2023/08/23 02:31:02;;;;;;;4.30;3.40;;;14.80;99.90;;;;;;5047376;28;20859;-52
2023/08/23 02:33:29;;;;;;;6.00;3.63;;;14.80;99.90;;;;;;5050688;28;20466;-52
2023/08/23 02:35:56;;;;;;;10.30;4.93;;;14.70;99.90;;;;;;5050324;28;21064;-52
2023/08/23 02:38:22;;;;;;;6.50;3.57;;;14.60;99.90;;;;;;5048796;28;20529;-52
2023/08/23 02:40:49;;;;;;;10.00;4.60;;;14.60;99.90;;;;;;5051958;28;20522;-52
2023/08/23 02:43:16;;;;;;;6.40;3.43;;;14.50;99.90;;;;;;5051983;28;20509;-52
2023/08/23 02:45:42;;;;;;;7.20;4.40;;;14.60;99.90;;;;;;5047042;28;20490;-52
2023/08/23 02:48:11;;;;;;;4.17;3.87;;;14.60;99.90;;;;;;5050987;28;20513;-52
2023/08/23 02:50:38;;;;;;;4.50;4.10;;;14.60;99.90;;;;;;5046654;28;21070;-52
2023/08/23 02:53:05;;;;;;;6.50;4.37;;;14.60;99.90;;;;;;5052432;28;20450;-53
2023/08/23 02:55:35;;;;;;;6.73;3.77;;;14.50;99.90;;;;;;5047264;28;20531;-52
2023/08/23 02:58:02;;;;;;;3.80;3.50;;;14.60;99.90;;;;;;5048255;28;20565;-52
2023/08/23 03:00:29;;;;;;;8.37;4.23;;;14.60;99.90;;;;;;5051511;28;20518;-52
2023/08/23 03:02:55;;;;;;;8.50;4.93;;;14.60;99.90;;;;;;5048276;28;20507;-52
2023/08/23 03:05:22;;;;;;;5.53;4.07;;;14.60;99.90;;;;;;5049077;28;20962;-52
2023/08/23 03:07:50;;;;;;;8.20;4.70;;;14.60;99.90;;;;;;5043671;28;20513;-53
2023/08/23 03:10:16;;;;;;;6.70;4.50;;;14.70;99.90;;;;;;5051225;28;20505;-52
2023/08/23 03:12:43;;;;;;;6.20;3.83;;;14.60;99.90;;;;;;5050761;28;20496;-53
2023/08/23 03:15:10;;;;;;;3.87;3.57;;;14.70;99.90;;;;;;5043136;28;21016;-51
2023/08/23 03:17:37;;;;;;;8.00;4.33;;;14.60;99.90;;;;;;5051169;28;20516;-52
2023/08/23 03:20:04;;;;;;;5.50;4.23;;;14.80;99.90;;;;;;5048566;28;20470;-51
2023/08/23 03:22:30;;;;;;;8.73;4.30;;;14.70;99.90;;;;;;5050827;28;20470;-53
2023/08/23 03:24:58;;;;;;;9.57;4.20;;;14.70;99.90;;;;;;5049864;28;20535;-50
2023/08/23 03:27:25;;;;;;;4.37;3.63;;;14.70;99.90;;;;;;5050795;28;21010;-52
2023/08/23 03:29:51;;;;;;;10.73;4.40;;;14.70;99.90;;;;;;5051128;28;20469;-52
2023/08/23 03:32:19;;;;;;;5.90;4.30;;;14.70;99.90;;;;;;5050641;28;20492;-52
2023/08/23 03:34:45;;;;;;;7.13;4.03;;;14.70;99.90;;;;;;5050699;28;20506;-51
2023/08/23 03:39:43;;;;;;;9.30;4.33;;;14.80;99.90;;;;;;5056501;28;20465;-54
2023/08/23 03:42:11;;;;;;;6.10;3.53;;;14.70;99.90;;;;;;5055206;28;20520;-55
2023/08/23 03:44:37;;;;;;;11.83;4.13;;;14.70;99.90;;;;;;5051100;28;20449;-55
2023/08/23 03:47:04;;;;;;;10.10;3.80;;;14.70;99.90;;;;;;5053172;28;20892;-55
2023/08/23 03:49:31;;;;;;;7.30;4.40;;;14.70;99.90;;;;;;5053343;28;21199;-54
2023/08/23 03:51:57;;;;;;;3.87;3.50;;;14.60;99.90;;;;;;5053399;28;20489;-55
2023/08/23 03:54:24;;;;;;;7.47;4.50;;;14.60;99.90;;;;;;5056344;28;20493;-55
2023/08/23 03:56:50;;;;;;;8.13;4.43;;;14.70;99.90;;;;;;5057798;28;20500;-55
2023/08/23 03:59:18;;;;;;;4.97;3.77;;;14.70;99.90;;;;;;5064936;28;20516;-55
2023/08/23 04:01:46;;;;;;;8.10;3.93;;;14.60;99.90;;;;;;5056549;28;20505;-54
2023/08/23 04:04:13;;;;;;;4.30;3.90;;;14.60;99.90;;;;;;5065680;28;20555;-55
2023/08/23 04:06:39;;;;;;;7.10;3.83;;;14.60;99.90;;;;;;5061150;28;20979;-56
2023/08/23 04:09:06;;;;;;;5.87;3.67;;;14.60;99.90;;;;;;5053791;28;20501;-51
2023/08/23 04:11:32;;;;;;;5.90;4.43;;;14.60;99.90;;;;;;5056500;28;20486;-52
2023/08/23 04:13:58;;;;;;;5.77;3.80;;;14.50;99.90;;;;;;5057640;28;20521;-53
2023/08/23 04:16:26;;;;;;;5.37;3.80;;;14.60;99.90;;;;;;5053052;28;20860;-52
2023/08/23 04:18:54;;;;;;;6.77;3.70;;;14.60;99.90;;;;;;5057635;28;20231;-53
2023/08/23 04:21:20;;;;;;;7.80;3.87;;;14.60;99.90;;;;;;5051332;28;20523;-52
2023/08/23 04:23:47;;;;;;;7.27;4.57;;;14.60;99.90;;;;;;5051581;28;20482;-51
2023/08/23 04:26:13;;;;;;;5.47;4.27;;;14.70;99.90;;;;;;5052031;28;20499;-52
2023/08/23 04:28:40;;;;;;;6.20;4.27;;;14.70;99.90;;;;;;5045311;28;20467;-51
2023/08/23 04:31:06;;;;;;;6.40;4.30;;;14.70;99.90;;;;;;5051755;28;20479;-51
2023/08/23 04:33:35;;;;;;;8.23;4.30;;;14.60;99.90;;;;;;5050034;28;20494;-52
2023/08/23 04:36:02;;;;;;;8.43;4.87;;;14.60;99.90;;;;;;5053933;28;20469;-52
2023/08/23 04:38:29;;;;;;;5.47;4.03;;;14.70;99.90;;;;;;5051439;28;20476;-52
2023/08/23 04:41:02;;;;;;;5.60;4.83;;;14.70;99.90;;;;;;5051940;28;20509;-52
2023/08/23 04:43:29;;;;;;;7.90;4.53;;;14.70;99.90;;;;;;5051249;28;21038;-54
2023/08/23 04:45:56;;;;;;;6.27;4.07;;;14.70;99.90;;;;;;5048220;28;20527;-53
2023/08/23 04:48:24;;;;;;;11.07;4.17;;;14.70;99.90;;;;;;5049926;28;20488;-52
2023/08/23 04:50:57;;;;;;;9.03;4.20;;;14.80;99.90;;;;;;5054528;28;20446;-52
2023/08/23 04:53:24;;;;;;;6.80;3.73;;;14.70;99.90;;;;;;5054920;28;20496;-51
2023/08/23 04:55:50;;;;;;;4.67;4.20;;;14.70;99.90;;;;;;5051687;28;21032;-53
2023/08/23 04:58:17;;;;;;;13.60;4.67;;;14.90;99.90;;;;;;5055576;28;20987;-53
2023/08/23 05:00:44;;;;;;;7.03;3.70;;;14.90;99.90;;;;;;5055751;28;20464;-52
2023/08/23 05:03:11;;;;;;;4.30;3.80;;;14.90;99.90;;;;;;5046191;28;20461;-51
2023/08/23 05:05:38;;;;;;;5.40;4.10;;;14.90;99.90;;;;;;5054785;28;20460;-52
2023/08/23 05:08:06;;;;;;;7.10;4.50;;;14.90;99.90;;;;;;5057157;28;20513;-52
2023/08/23 05:10:32;;;;;;;5.10;4.50;;;15.00;99.90;;;;;;5055473;28;20481;-52
2023/08/23 05:13:01;;;;;;;10.33;4.67;;;15.00;99.90;;;;;;5055544;28;20473;-51
2023/08/23 05:15:28;;;;;;;9.20;4.33;;;15.10;99.90;;;;;;5055051;28;20469;-60
2023/08/23 05:17:54;;;;;;;10.10;4.70;;;15.20;99.90;;;;;;5055306;28;20477;-58
2023/08/23 05:20:21;;;;;;;8.17;5.10;;;15.20;99.90;;;;;;5058306;28;21016;-58
2023/08/23 05:22:48;;;;;;;9.57;5.57;;;15.30;99.90;;;;;;5050580;28;20600;-59
2023/08/23 05:25:16;;;;;;;7.10;5.00;;;15.30;99.90;;;;;;5067091;28;20496;-59
2023/08/23 05:27:42;;;;;;;13.47;4.90;;;15.40;99.90;;;;;;5059966;28;20564;-60
2023/08/23 05:30:09;;;;;;;21.13;5.83;;;15.50;99.90;;;;;;5058282;28;20489;-59
2023/08/23 05:32:36;;;;;;;10.33;5.73;;;15.60;99.90;;;;;;5066015;28;20485;-57
2023/08/23 05:35:04;;;;;;;12.30;5.60;;;15.70;99.90;;;;;;5055858;28;20497;-58
2023/08/23 05:37:30;;;;;;;9.57;5.70;;;15.90;99.90;;;;;;5051287;28;20564;-59
2023/08/23 05:39:57;;;;;;;11.00;5.23;;;15.90;99.90;;;;;;5050947;28;21024;-58
2023/08/23 05:42:25;;;;;;;10.73;5.93;;;16.00;99.90;;;;;;5055627;28;20482;-58
2023/08/23 05:44:52;;;;;;;6.13;5.00;;;16.10;99.90;;;;;;5053619;28;20927;-59
2023/08/23 05:47:18;;;;;;;6.33;5.30;;;16.20;99.90;;;;;;5054812;28;20493;-59
2023/08/23 05:49:45;;;;;;;15.00;6.00;;;16.30;99.90;;;;;;5054626;28;20485;-59
2023/08/23 05:52:11;;;;;;;11.07;5.83;;;16.40;99.90;;;;;;5054356;28;20543;-59
2023/08/23 05:54:38;;;;;;;13.90;5.53;;;16.50;99.90;;;;;;5056169;28;20913;-59
2023/08/23 05:57:05;;;;;;;10.10;5.03;;;16.60;99.90;;;;;;5057226;28;20501;-58
2023/08/23 05:59:33;;;;;;;9.03;5.43;;;16.60;99.90;;;;;;5054751;28;20466;-59
2023/08/23 06:01:59;;;;;;;10.57;4.90;;;16.70;99.90;;;;;;5060452;28;20567;-56
2023/08/23 06:04:26;;;;;;;6.27;5.33;;;16.80;99.90;;;;;;5064866;28;20468;-54
2023/08/23 06:06:53;;;;;;;8.37;5.43;;;16.90;99.90;;;;;;5067550;28;20466;-54
2023/08/23 06:09:19;;;;;;;10.87;6.37;;;17.00;99.90;;;;;;5057632;28;20995;-54
2023/08/23 06:11:46;;;;;;;11.50;5.20;;;17.10;99.90;;;;;;5053090;28;20462;-54
2023/08/23 06:14:20;;;;;;;12.47;5.30;;;17.10;99.90;;;;;;5045803;28;20497;-55
2023/08/23 06:16:48;;;;;;;13.00;4.57;;;17.20;99.90;;;;;;5054096;28;20474;-55
2023/08/23 06:19:14;;;;;;;5.30;4.80;;;17.20;99.90;;;;;;5052919;28;20508;-54
2023/08/23 06:21:41;;;;;;;9.87;5.20;;;17.30;99.90;;;;;;5055850;28;20486;-55
2023/08/23 06:24:08;;;;;;;6.67;4.30;;;17.40;99.90;;;;;;5038215;28;20659;-54
2023/08/23 06:26:35;;;;;;;8.67;4.87;;;17.40;99.90;;;;;;5023901;28;20556;-55
2023/08/23 06:29:01;;;;;;;12.90;4.83;;;17.50;99.90;;;;;;5041086;28;20484;-58
2023/08/23 06:31:28;;;;;;;6.53;4.60;;;17.70;99.90;;;;;;5039651;28;21073;-59
2023/08/23 06:33:56;;;;;;;6.77;4.67;;;17.70;99.90;;;;;;5051215;28;20507;-58
2023/08/23 06:36:22;;;;;;;4.90;3.97;;;17.90;99.90;;;;;;5058791;28;20492;-58
2023/08/23 06:38:49;;;;;;;8.40;4.30;;;17.90;99.90;;;;;;5051563;28;20550;-57
2023/08/23 06:41:16;;;;;;;16.90;5.80;;;17.90;99.90;;;;;;5054334;28;20466;-58
2023/08/23 06:43:42;;;;;;;7.50;3.80;;;18.00;25.50;;;;;;5054839;28;20511;-57
2023/08/23 06:46:09;;;;;;;9.53;4.50;;;18.10;24.40;;;;;;5050228;28;20458;-56
2023/08/23 06:48:35;;;;;;;8.87;3.57;;;18.20;32.60;;;;;;5063429;28;20530;-56
2023/08/23 06:51:04;;;;;;;6.50;3.93;;;18.30;36.20;;;;;;5062977;28;20493;-56
2023/08/23 06:53:31;;;;;;;10.13;3.60;;;18.40;44.00;;;;;;5046338;28;20463;-55
2023/08/23 06:55:58;;;;;;;7.87;3.77;;;18.40;43.20;;;;;;5037414;28;20462;-55
2023/08/23 06:58:24;;;;;;;8.27;3.83;;;18.50;43.90;;;;;;5046423;28;20513;-57
2023/08/23 07:00:51;;;;;;;4.50;3.50;;;18.60;46.00;;;;;;5059147;28;20437;-56
2023/08/23 07:03:17;;;;;;;5.57;4.23;;;18.70;54.80;;;;;;5049018;28;20513;-52
2023/08/23 07:05:44;;;;;;;7.17;4.00;;;18.80;54.80;;;;;;5035817;28;20504;-52
2023/08/23 07:08:12;;;;;;;8.77;3.80;;;18.90;57.80;;;;;;5050193;28;20486;-52
2023/08/23 07:10:38;;;;;;;7.80;3.70;;;19.00;58.80;;;;;;5052315;28;20450;-51
2023/08/23 07:13:05;;;;;;;15.53;4.30;;;19.10;57.20;;;;;;5053159;28;20468;-52
2023/08/23 07:15:31;;;;;;;7.50;4.27;;;19.20;56.00;;;;;;5051524;28;20446;-53
2023/08/23 07:17:58;;;;;;;8.60;4.17;;;19.30;58.10;;;;;;5048943;28;21014;-53
2023/08/23 07:20:25;;;;;;;35.80;4.70;;;19.30;59.00;;;;;;5041416;28;20971;-52
2023/08/23 07:22:51;;;;;;;6.90;3.97;;;19.40;61.00;;;;;;5048131;28;20565;-52
2023/08/23 07:25:19;;;;;;;4.87;3.80;;;19.40;62.30;;;;;;5051798;28;20469;-52
2023/08/23 07:27:46;;;;;;;8.33;3.57;;;19.60;64.90;;;;;;5042377;28;20543;-53
2023/08/23 07:30:13;;;;;;;7.60;3.07;;;19.70;83.00;;;;;;5051611;28;20477;-52
2023/08/23 07:32:40;;;;;;;6.77;2.80;;;19.80;85.10;;;;;;5051965;28;20470;-53
2023/08/23 07:35:07;;;;;;;13.60;3.20;;;19.90;95.20;;;;;;5035590;28;20557;-52
2023/08/23 07:37:34;;;;;;;3.23;2.93;;;20.00;96.60;;;;;;5047098;28;20998;-52
2023/08/23 07:40:01;;;;;;;8.20;3.10;;;20.10;96.00;;;;;;5037988;28;20909;-52
2023/08/23 07:42:28;;;;;;;4.23;2.77;;;20.30;96.30;;;;;;5049224;28;20524;-53
2023/08/23 07:44:55;;;;;;;3.30;2.83;;;20.30;99.90;;;;;;5045913;28;20489;-53
2023/08/23 07:47:22;;;;;;;8.10;3.00;;;20.40;99.90;;;;;;5049533;28;20527;-53
2023/08/23 07:49:49;;;;;;;8.60;2.40;;;20.50;99.90;;;;;;5050031;28;20627;-52
2023/08/23 07:52:15;;;;;;;11.43;2.70;;;20.60;99.90;;;;;;5048277;28;20471;-52
2023/08/23 07:54:42;;;;;;;8.07;3.20;;;20.70;99.90;;;;;;5049423;28;20462;-53
2023/08/23 07:57:09;;;;;;;9.43;3.13;;;20.90;99.90;;;;;;5048833;28;20548;-52
2023/08/23 07:59:37;;;;;;;6.73;2.57;;;20.90;99.90;;;;;;5043954;28;20493;-52
2023/08/23 08:02:03;;;;;;;4.77;2.87;;;21.00;99.90;;;;;;5044099;28;20509;-52
2023/08/23 08:04:31;;;;;;;7.33;3.00;;;21.10;99.90;;;;;;5045758;28;20514;-53
2023/08/23 08:06:58;;;;;;;11.70;2.37;;;21.20;99.90;;;;;;5046185;28;20987;-52
2023/08/23 08:09:24;;;;;;;7.87;2.70;;;21.20;99.90;;;;;;5042659;28;20496;-52
2023/08/23 08:11:51;;;;;;;2.40;2.20;;;21.30;99.90;;;;;;5043651;28;20457;-52
2023/08/23 08:14:18;;;;;;;10.60;3.33;;;21.40;99.90;;;;;;5034646;28;20516;-53
2023/08/23 08:16:46;;;;;;;3.97;2.80;;;21.50;99.90;;;;;;5026550;28;20592;-52
2023/08/23 08:19:12;;;;;;;3.67;2.60;;;21.50;99.90;;;;;;5043651;28;20500;-53
2023/08/23 08:21:40;;;;;;;3.50;2.70;;;21.60;99.90;;;;;;5039963;28;20539;-53
2023/08/23 08:24:07;;;;;;;5.83;2.90;;;21.70;99.90;;;;;;5044300;28;20909;-55
2023/08/23 08:26:33;;;;;;;8.87;2.70;;;21.80;99.90;;;;;;5040171;28;21006;-54
2023/08/23 08:29:00;;;;;;;8.07;2.50;;;21.90;99.90;;;;;;5058801;28;20489;-55
2023/08/23 08:31:26;;;;;;;4.47;2.53;;;21.90;99.90;;;;;;5048416;28;20513;-55
2023/08/23 08:33:56;;;;;;;8.80;2.70;;;22.10;99.90;;;;;;5041365;28;21080;-55
2023/08/23 08:36:23;;;;;;;13.10;3.30;;;22.20;99.90;;;;;;5040470;28;20459;-54
2023/08/23 08:38:49;;;;;;;7.20;2.97;;;22.30;99.90;;;;;;5032393;28;20494;-58
2023/08/23 08:41:16;;;;;;;10.83;3.00;;;22.40;99.90;;;;;;5033491;28;20462;-52
2023/08/23 08:43:43;;;;;;;9.83;2.90;;;22.50;99.90;;;;;;5037999;28;20557;-52
2023/08/23 08:46:10;;;;;;;13.93;3.50;;;22.50;99.90;;;;;;5030378;28;21046;-55
2023/08/23 08:48:37;;;;;;;12.20;3.23;;;22.60;99.90;;;;;;5043815;28;21018;-55
2023/08/23 08:51:10;;;;;;;7.37;3.50;;;22.70;99.90;;;;;;5047965;28;20542;-55
2023/08/23 08:53:37;;;;;;;7.93;3.00;;;22.80;99.90;;;;;;5032534;28;20589;-55
2023/08/23 08:56:05;;;;;;;15.50;4.10;;;22.90;99.90;;;;;;5042944;28;20578;-55
2023/08/23 08:58:33;;;;;;;12.40;3.37;;;23.00;99.90;;;;;;5045980;28;20517;-55
2023/08/23 09:01:01;;;;;;;5.70;2.60;;;23.30;99.90;;;;;;5042120;28;20551;-52
2023/08/23 09:03:28;;;;;;;8.43;3.70;;;23.50;99.90;;;;;;5050303;28;20477;-51
2023/08/23 09:05:55;;;;;;;11.50;3.50;;;23.60;99.90;;;;;;5049199;28;20540;-51
2023/08/23 09:08:23;;;;;;;9.07;3.77;;;23.70;99.90;;;;;;5044219;28;20476;-51
2023/08/23 09:10:50;;;;;;;3.70;2.93;;;23.80;99.90;;;;;;5044063;28;20889;-51
2023/08/23 09:13:16;;;;;;;4.50;2.73;;;23.90;99.90;;;;;;5046332;28;20459;-51
2023/08/23 09:15:43;;;;;;;9.77;2.77;;;24.20;99.90;;;;;;5045829;28;20485;-51
2023/08/23 09:18:10;;;;;;;6.83;3.60;;;24.40;99.70;;;;;;5049886;28;20486;-51
2023/08/23 09:20:37;;;;;;;12.00;3.63;;;24.40;30.00;;;;;;5043642;28;20486;-52
2023/08/23 09:23:03;;;;;;;9.77;2.87;;;24.40;34.80;;;;;;5050381;28;20503;-52
2023/08/23 09:25:31;;;;;;;11.93;4.23;;;24.40;48.00;;;;;;5049264;28;20442;-51
2023/08/23 09:27:58;;;;;;;12.83;3.57;;;24.50;61.20;;;;;;5046585;28;20512;-52
2023/08/23 09:30:25;;;;;;;7.20;2.87;;;24.70;53.50;;;;;;5038041;28;20520;-51
2023/08/23 09:32:51;;;;;;;7.10;3.10;;;24.70;65.40;;;;;;5047484;28;20799;-52
2023/08/23 09:35:18;;;;;;;6.97;2.60;;;24.80;81.80;;;;;;5053151;28;21017;-52
2023/08/23 09:37:46;;;;;;;7.07;2.73;;;25.10;77.70;;;;;;5069121;22;20555;-52
2023/08/23 09:40:17;;;;;;;7.80;2.57;;;24.90;87.90;;;;;;5052173;28;20524;-52
2023/08/23 09:42:46;;;;;;;3.33;2.70;;;24.70;87.70;;;;;;5051955;28;20997;-52
2023/08/23 09:45:17;;;;;;;12.20;2.30;;;24.40;87.80;;;;;;5042630;28;20489;-51
2023/08/23 09:47:50;;;;;;;6.73;2.37;;;24.30;84.50;;;;;;5050339;28;20506;-51
2023/08/23 09:50:17;;;;;;;7.43;2.60;;;24.20;82.80;;;;;;5052260;28;20607;-51
2023/08/23 09:52:45;;;;;;;4.47;2.33;;;24.00;82.80;;;;;;5052870;28;20493;-52
2023/08/23 09:55:13;;;;;;;6.00;2.20;;;24.10;78.70;;;;;;5060644;28;20472;-51
2023/08/23 09:57:41;;;;;;;8.17;2.13;;;24.30;86.20;;;;;;5046818;28;20465;-51
2023/08/23 10:00:10;;;;;;;5.77;1.83;;;24.60;87.60;;;;;;5056274;28;20504;-52
2023/08/23 10:02:37;;;;;;;7.10;2.50;;;25.20;96.50;;;;;;5043145;28;20481;-52
2023/08/23 10:05:06;;;;;;;12.40;2.33;;;25.20;99.90;;;;;;5050872;28;21015;-52
2023/08/23 10:07:33;;;;;;;4.20;1.50;;;25.90;99.90;;;;;;5034831;28;20462;-52
2023/08/23 10:10:01;;;;;;;17.23;1.87;;;26.70;99.90;;;;;;5046867;28;20507;-52
2023/08/23 10:12:28;;;;;;;4.40;1.60;;;27.10;99.90;;;;;;5053877;28;20528;-51
2023/08/23 10:14:59;;;;;;;1.90;1.70;;;27.60;99.90;;;;;;5050277;28;22381;-52
2023/08/23 10:17:28;;;;;;;5.70;1.70;;;28.10;99.90;;;;;;5041412;28;20994;-52
2023/08/23 10:19:54;;;;;;;2.07;1.70;;;28.40;99.90;;;;;;5043600;28;21054;-52
2023/08/23 10:22:21;;;;;;;5.27;1.83;;;29.00;99.90;;;;;;5051841;28;20555;-51
2023/08/23 10:24:48;;;;;;;4.70;2.57;;;28.50;99.90;;;;;;5056076;28;20489;-52
2023/08/23 10:27:17;;;;;;;8.33;2.20;;;27.90;99.90;;;;;;5052119;28;20466;-51
2023/08/23 10:29:49;;;;;;;11.73;2.80;;;28.40;99.90;;;;;;5049468;28;20892;-51
2023/08/23 10:32:16;;;;;;;8.33;2.17;;;28.80;99.90;;;;;;5042385;28;20467;-52
2023/08/23 10:34:44;;;;;;;18.33;3.33;;;29.00;99.90;;;;;;5053265;28;20477;-51
2023/08/23 10:37:14;;;;;;;3.97;1.57;;;28.60;99.90;;;;;;5047448;28;20562;-52
2023/08/23 10:39:46;;;;;;;5.03;1.77;;;28.60;99.90;;;;;;5041311;28;20489;-51
2023/08/23 10:42:13;;;;;;;4.23;1.57;;;30.10;99.90;;;;;;5049549;28;20469;-51
2023/08/23 10:44:45;;;;;;;1.87;1.40;;;29.80;99.90;;;;;;5047345;28;20528;-51
2023/08/23 10:47:13;;;;;;;8.67;2.20;;;29.50;99.90;;;;;;5051930;28;20546;-52
2023/08/23 10:49:40;;;;;;;3.97;1.50;;;29.80;99.90;;;;;;5051386;28;20514;-51
2023/08/23 10:52:08;;;;;;;4.87;1.97;;;30.60;99.90;;;;;;5050199;28;21016;-52
2023/08/23 10:54:35;;;;;;;4.40;2.10;;;29.40;99.90;;;;;;5046504;28;20453;-52
2023/08/23 10:57:02;;;;;;;4.60;2.03;;;28.30;99.90;;;;;;5049749;28;20553;-52
2023/08/23 10:59:29;;;;;;;4.50;1.70;;;27.10;99.90;;;;;;5051144;28;20485;-52
2023/08/23 11:01:56;;;;;;;6.50;1.77;;;27.70;99.90;;;;;;5047711;28;21047;-51
2023/08/23 11:04:23;;;;;;;3.33;1.90;;;27.60;99.90;;;;;;5041967;28;21069;-52
2023/08/23 11:06:51;;;;;;;9.63;2.23;;;27.20;99.90;;;;;;5044801;28;20497;-52
2023/08/23 11:09:19;;;;;;;5.70;2.00;;;27.00;99.90;;;;;;5047277;28;21031;-52
2023/08/23 11:11:45;;;;;;;7.37;1.97;;;26.50;99.90;;;;;;5041490;28;20486;-52
2023/08/23 11:14:12;;;;;;;5.20;1.27;;;26.30;99.90;;;;;;5047604;28;20489;-51
2023/08/23 11:16:39;;;;;;;5.90;1.80;;;26.50;99.90;;;;;;5050212;28;20489;-52
2023/08/23 11:19:07;;;;;;;3.47;1.63;;;26.60;99.90;;;;;;5047431;28;20482;-53
2023/08/23 11:21:33;;;;;;;4.57;1.53;;;27.10;99.90;;;;;;5045095;28;20975;-52
2023/08/23 11:24:03;;;;;;;8.03;1.63;;;27.10;99.90;;;;;;5048034;28;20517;-51
2023/08/23 11:26:33;;;;;;;5.77;1.63;;;27.30;99.90;;;;;;5045661;28;20466;-52
2023/08/23 11:29:00;;;;;;;6.73;1.70;;;27.20;99.90;;;;;;5043128;28;20512;-52
2023/08/23 11:31:27;;;;;;;8.33;1.73;;;27.00;99.90;;;;;;5046638;28;20908;-52
2023/08/23 11:33:54;;;;;;;3.07;1.90;;;27.10;99.90;;;;;;5052004;28;21018;-51
2023/08/23 11:36:20;;;;;;;3.80;1.87;;;27.20;99.90;;;;;;5048015;28;20551;-51
2023/08/23 11:38:47;;;;;;;3.30;1.60;;;26.90;99.90;;;;;;5048395;28;20509;-53
2023/08/23 11:41:14;;;;;;;5.50;1.80;;;26.60;99.90;;;;;;5048677;28;20513;-52
2023/08/23 11:43:45;;;;;;;2.50;1.73;;;26.60;99.90;;;;;;5038403;28;20595;-52
2023/08/23 11:46:12;;;;;;;3.83;1.73;;;26.60;99.90;;;;;;5047421;28;20896;-52
2023/08/23 11:48:39;;;;;;;4.97;1.47;;;26.50;99.90;;;;;;5046127;28;20505;-52
2023/08/23 11:51:07;;;;;;;5.83;2.07;;;26.20;99.90;;;;;;5050217;28;20547;-52
2023/08/23 11:53:33;;;;;;;4.30;1.13;;;26.40;99.90;;;;;;5035560;28;20465;-51
2023/08/23 11:56:00;;;;;;;2.77;0.93;;;26.60;99.90;;;;;;5048985;28;20962;-52
2023/08/23 11:58:27;;;;;;;1.47;0.87;;;26.90;99.90;;;;;;5048757;28;20482;-52
2023/08/23 12:00:54;;;;;;;4.53;1.20;;;26.90;99.90;;;;;;5042636;28;20921;-53
2023/08/23 12:03:21;;;;;;;5.03;0.90;;;27.30;99.90;;;;;;5044854;28;20554;-52
2023/08/23 12:05:47;;;;;;;11.97;1.13;;;27.20;99.90;;;;;;5047324;28;20549;-52
2023/08/23 12:08:14;;;;;;;1.77;1.33;;;27.10;99.90;;;;;;5052099;28;20485;-52
2023/08/23 12:10:40;;;;;;;2.47;1.40;;;27.30;99.90;;;;;;5039215;28;20458;-52
2023/08/23 12:13:07;;;;;;;2.60;1.77;;;27.30;99.90;;;;;;5051572;28;20497;-52
2023/08/23 12:15:34;;;;;;;5.23;1.63;;;27.40;99.90;;;;;;5044794;28;20492;-52
2023/08/23 12:18:02;;;;;;;31.37;2.07;;;26.90;99.90;;;;;;5046181;28;20534;-51
2023/08/23 12:20:28;;;;;;;2.63;1.47;;;26.40;99.90;;;;;;5047767;28;20470;-52
2023/08/23 12:22:55;;;;;;;3.53;1.57;;;25.90;99.90;;;;;;5054818;28;20498;-52
2023/08/23 12:25:22;;;;;;;2.40;1.93;;;25.80;99.90;;;;;;5047633;28;20463;-54
2023/08/23 12:27:48;;;;;;;1.30;1.20;;;25.50;99.90;;;;;;5047002;28;20461;-53
2023/08/23 12:30:15;;;;;;;7.70;1.47;;;25.50;99.90;;;;;;5044781;28;20492;-53
2023/08/23 12:32:41;;;;;;;2.50;1.00;;;25.60;99.90;;;;;;5045009;28;20489;-53
2023/08/23 12:35:10;;;;;;;5.47;1.27;;;26.10;99.90;;;;;;5038357;28;20960;-52
2023/08/23 12:37:36;;;;;;;3.03;1.13;;;26.50;99.90;;;;;;5042421;28;20465;-51
2023/08/23 12:40:07;;;;;;;6.33;1.10;;;26.70;99.90;;;;;;5044831;28;20471;-52
2023/08/23 12:42:34;;;;;;;2.30;0.80;;;26.90;99.90;;;;;;5054071;28;20796;-54
2023/08/23 12:45:01;;;;;;;2.40;0.93;;;27.70;99.90;;;;;;5051757;28;20478;-53
2023/08/23 12:47:27;;;;;;;1.83;1.50;;;28.40;99.90;;;;;;5053167;28;20828;-51